sensor_id;sensor_type;location;lat;lon;timestamp;P1;durP1;ratioP1;P2;durP2;ratioP2
59486;SDS011;45298;54.918;73.504;2023-01-08T00:02:02;15.38;;;5.57;;
59486;SDS011;45298;54.918;73.504;2023-01-08T00:04:30;12.38;;;5.25;;
59486;SDS011;45298;54.918;73.504;2023-01-08T00:06:59;11.98;;;5.00;;
59486;SDS011;45298;54.918;73.504;2023-01-08T00:09:28;14.85;;;5.68;;
59486;SDS011;45298;54.918;73.504;2023-01-08T00:11:57;11.48;;;5.20;;
59486;SDS011;45298;54.918;73.504;2023-01-08T00:14:26;13.27;;;5.20;;
59486;SDS011;45298;54.918;73.504;2023-01-08T00:16:54;15.98;;;5.50;;
59486;SDS011;45298;54.918;73.504;2023-01-08T00:19:23;14.57;;;5.22;;
59486;SDS011;45298;54.918;73.504;2023-01-08T00:21:52;13.60;;;5.63;;
59486;SDS011;45298;54.918;73.504;2023-01-08T00:24:21;13.52;;;5.68;;
59486;SDS011;45298;54.918;73.504;2023-01-08T00:26:50;14.10;;;5.63;;
59486;SDS011;45298;54.918;73.504;2023-01-08T00:29:19;14.10;;;5.35;;
59486;SDS011;45298;54.918;73.504;2023-01-08T00:31:47;15.85;;;6.03;;
59486;SDS011;45298;54.918;73.504;2023-01-08T00:34:16;14.88;;;5.40;;
59486;SDS011;45298;54.918;73.504;2023-01-08T00:36:45;17.63;;;5.75;;
59486;SDS011;45298;54.918;73.504;2023-01-08T00:39:13;13.55;;;5.82;;
59486;SDS011;45298;54.918;73.504;2023-01-08T00:41:42;15.63;;;5.80;;
59486;SDS011;45298;54.918;73.504;2023-01-08T00:44:12;15.57;;;6.05;;
59486;SDS011;45298;54.918;73.504;2023-01-08T00:46:40;13.70;;;5.53;;
59486;SDS011;45298;54.918;73.504;2023-01-08T00:49:09;15.43;;;5.63;;
59486;SDS011;45298;54.918;73.504;2023-01-08T00:51:41;15.20;;;5.90;;
59486;SDS011;45298;54.918;73.504;2023-01-08T00:54:10;16.67;;;5.40;;
59486;SDS011;45298;54.918;73.504;2023-01-08T00:56:39;15.35;;;5.63;;
59486;SDS011;45298;54.918;73.504;2023-01-08T00:59:08;13.73;;;5.22;;
59486;SDS011;45298;54.918;73.504;2023-01-08T01:01:37;12.90;;;5.38;;
59486;SDS011;45298;54.918;73.504;2023-01-08T01:04:06;11.98;;;5.05;;
59486;SDS011;45298;54.918;73.504;2023-01-08T01:06:34;13.43;;;5.13;;
59486;SDS011;45298;54.918;73.504;2023-01-08T01:09:05;17.30;;;5.38;;
59486;SDS011;45298;54.918;73.504;2023-01-08T01:11:35;16.90;;;5.35;;
59486;SDS011;45298;54.918;73.504;2023-01-08T01:14:03;12.70;;;5.40;;
59486;SDS011;45298;54.918;73.504;2023-01-08T01:16:32;18.13;;;6.03;;
59486;SDS011;45298;54.918;73.504;2023-01-08T01:19:01;13.48;;;4.88;;
59486;SDS011;45298;54.918;73.504;2023-01-08T01:21:30;13.07;;;5.50;;
59486;SDS011;45298;54.918;73.504;2023-01-08T01:24:01;15.57;;;5.03;;
59486;SDS011;45298;54.918;73.504;2023-01-08T01:26:31;11.88;;;5.18;;
59486;SDS011;45298;54.918;73.504;2023-01-08T01:29:01;13.73;;;5.13;;
59486;SDS011;45298;54.918;73.504;2023-01-08T01:31:30;15.23;;;5.45;;
59486;SDS011;45298;54.918;73.504;2023-01-08T01:33:59;12.70;;;5.60;;
59486;SDS011;45298;54.918;73.504;2023-01-08T01:36:28;14.45;;;5.50;;
59486;SDS011;45298;54.918;73.504;2023-01-08T01:38:57;12.43;;;4.95;;
59486;SDS011;45298;54.918;73.504;2023-01-08T01:41:27;27.67;;;8.27;;
59486;SDS011;45298;54.918;73.504;2023-01-08T01:43:59;38.65;;;11.75;;
59486;SDS011;45298;54.918;73.504;2023-01-08T01:46:48;38.20;;;15.43;;
59486;SDS011;45298;54.918;73.504;2023-01-08T01:49:18;40.47;;;18.02;;
59486;SDS011;45298;54.918;73.504;2023-01-08T01:51:51;53.42;;;25.13;;
59486;SDS011;45298;54.918;73.504;2023-01-08T01:54:22;112.15;;;42.78;;
59486;SDS011;45298;54.918;73.504;2023-01-08T01:56:52;20.23;;;9.15;;
59486;SDS011;45298;54.918;73.504;2023-01-08T01:59:21;32.92;;;13.98;;
59486;SDS011;45298;54.918;73.504;2023-01-08T02:01:50;15.95;;;8.32;;
59486;SDS011;45298;54.918;73.504;2023-01-08T02:04:19;19.45;;;8.50;;
59486;SDS011;45298;54.918;73.504;2023-01-08T02:06:55;29.00;;;13.43;;
59486;SDS011;45298;54.918;73.504;2023-01-08T02:10:15;24.27;;;11.95;;
59486;SDS011;45298;54.918;73.504;2023-01-08T02:13:03;36.47;;;15.88;;
59486;SDS011;45298;54.918;73.504;2023-01-08T02:15:48;26.50;;;12.10;;
59486;SDS011;45298;54.918;73.504;2023-01-08T02:18:28;29.65;;;14.15;;
59486;SDS011;45298;54.918;73.504;2023-01-08T02:21:29;43.13;;;19.10;;
59486;SDS011;45298;54.918;73.504;2023-01-08T02:27:10;47.30;;;19.65;;
59486;SDS011;45298;54.918;73.504;2023-01-08T02:29:41;44.80;;;19.73;;
59486;SDS011;45298;54.918;73.504;2023-01-08T02:32:11;45.20;;;18.10;;
59486;SDS011;45298;54.918;73.504;2023-01-08T02:34:40;38.38;;;16.77;;
59486;SDS011;45298;54.918;73.504;2023-01-08T02:37:09;39.92;;;16.85;;
59486;SDS011;45298;54.918;73.504;2023-01-08T02:48:05;55.47;;;22.70;;
59486;SDS011;45298;54.918;73.504;2023-01-08T02:50:40;190.57;;;84.15;;
59486;SDS011;45298;54.918;73.504;2023-01-08T02:53:17;93.23;;;43.80;;
59486;SDS011;45298;54.918;73.504;2023-01-08T02:55:55;42.72;;;19.05;;
59486;SDS011;45298;54.918;73.504;2023-01-08T02:58:28;43.83;;;18.80;;
59486;SDS011;45298;54.918;73.504;2023-01-08T03:01:01;46.10;;;19.52;;
59486;SDS011;45298;54.918;73.504;2023-01-08T03:03:31;51.25;;;19.13;;
59486;SDS011;45298;54.918;73.504;2023-01-08T03:06:02;55.83;;;23.65;;
59486;SDS011;45298;54.918;73.504;2023-01-08T03:08:35;55.10;;;23.48;;
59486;SDS011;45298;54.918;73.504;2023-01-08T03:11:07;66.75;;;27.15;;
59486;SDS011;45298;54.918;73.504;2023-01-08T03:13:44;88.97;;;32.53;;
59486;SDS011;45298;54.918;73.504;2023-01-08T03:16:18;78.20;;;26.58;;
59486;SDS011;45298;54.918;73.504;2023-01-08T03:18:56;69.78;;;25.83;;
59486;SDS011;45298;54.918;73.504;2023-01-08T03:21:40;58.78;;;23.13;;
59486;SDS011;45298;54.918;73.504;2023-01-08T03:24:13;47.92;;;19.58;;
59486;SDS011;45298;54.918;73.504;2023-01-08T03:26:45;46.80;;;19.33;;
59486;SDS011;45298;54.918;73.504;2023-01-08T03:29:18;40.47;;;18.30;;
59486;SDS011;45298;54.918;73.504;2023-01-08T03:31:49;74.63;;;24.08;;
59486;SDS011;45298;54.918;73.504;2023-01-08T03:34:20;81.53;;;27.83;;
59486;SDS011;45298;54.918;73.504;2023-01-08T03:36:52;117.13;;;37.55;;
59486;SDS011;45298;54.918;73.504;2023-01-08T03:39:31;174.95;;;51.03;;
59486;SDS011;45298;54.918;73.504;2023-01-08T03:42:09;110.35;;;35.97;;
59486;SDS011;45298;54.918;73.504;2023-01-08T03:44:41;131.75;;;40.42;;
59486;SDS011;45298;54.918;73.504;2023-01-08T03:47:10;111.55;;;39.15;;
59486;SDS011;45298;54.918;73.504;2023-01-08T03:49:40;73.43;;;28.38;;
59486;SDS011;45298;54.918;73.504;2023-01-08T03:52:24;44.30;;;17.90;;
59486;SDS011;45298;54.918;73.504;2023-01-08T03:54:55;41.85;;;16.48;;
59486;SDS011;45298;54.918;73.504;2023-01-08T03:57:24;31.73;;;14.10;;
59486;SDS011;45298;54.918;73.504;2023-01-08T03:59:56;37.15;;;14.77;;
59486;SDS011;45298;54.918;73.504;2023-01-08T04:02:24;36.65;;;14.65;;
59486;SDS011;45298;54.918;73.504;2023-01-08T04:04:53;39.78;;;14.90;;
59486;SDS011;45298;54.918;73.504;2023-01-08T04:07:25;33.60;;;14.32;;
59486;SDS011;45298;54.918;73.504;2023-01-08T04:09:54;35.15;;;14.73;;
59486;SDS011;45298;54.918;73.504;2023-01-08T04:12:23;31.90;;;14.02;;
59486;SDS011;45298;54.918;73.504;2023-01-08T04:14:52;36.28;;;13.88;;
59486;SDS011;45298;54.918;73.504;2023-01-08T04:17:20;34.38;;;13.77;;
59486;SDS011;45298;54.918;73.504;2023-01-08T04:19:49;49.95;;;19.90;;
59486;SDS011;45298;54.918;73.504;2023-01-08T04:22:18;42.70;;;17.52;;
59486;SDS011;45298;54.918;73.504;2023-01-08T04:24:47;31.05;;;14.13;;
59486;SDS011;45298;54.918;73.504;2023-01-08T04:27:16;31.27;;;13.50;;
59486;SDS011;45298;54.918;73.504;2023-01-08T04:29:45;20.88;;;9.52;;
59486;SDS011;45298;54.918;73.504;2023-01-08T04:32:14;23.67;;;9.68;;
59486;SDS011;45298;54.918;73.504;2023-01-08T04:34:43;12.15;;;5.82;;
59486;SDS011;45298;54.918;73.504;2023-01-08T04:37:12;16.40;;;7.97;;
59486;SDS011;45298;54.918;73.504;2023-01-08T04:39:40;17.50;;;8.07;;
59486;SDS011;45298;54.918;73.504;2023-01-08T04:42:10;18.75;;;7.90;;
59486;SDS011;45298;54.918;73.504;2023-01-08T04:44:38;16.85;;;8.00;;
59486;SDS011;45298;54.918;73.504;2023-01-08T04:47:07;16.10;;;7.38;;
59486;SDS011;45298;54.918;73.504;2023-01-08T04:49:36;45.65;;;18.40;;
59486;SDS011;45298;54.918;73.504;2023-01-08T04:52:06;34.47;;;13.30;;
59486;SDS011;45298;54.918;73.504;2023-01-08T04:54:35;43.42;;;16.63;;
59486;SDS011;45298;54.918;73.504;2023-01-08T04:57:03;51.40;;;18.58;;
59486;SDS011;45298;54.918;73.504;2023-01-08T04:59:32;58.83;;;19.77;;
59486;SDS011;45298;54.918;73.504;2023-01-08T05:02:01;36.97;;;12.60;;
59486;SDS011;45298;54.918;73.504;2023-01-08T05:04:30;41.30;;;16.17;;
59486;SDS011;45298;54.918;73.504;2023-01-08T05:06:59;38.05;;;14.27;;
59486;SDS011;45298;54.918;73.504;2023-01-08T05:09:28;30.88;;;12.88;;
59486;SDS011;45298;54.918;73.504;2023-01-08T05:11:57;28.20;;;10.90;;
59486;SDS011;45298;54.918;73.504;2023-01-08T05:14:26;20.40;;;7.90;;
59486;SDS011;45298;54.918;73.504;2023-01-08T05:16:55;21.88;;;8.45;;
59486;SDS011;45298;54.918;73.504;2023-01-08T05:19:23;21.98;;;8.05;;
59486;SDS011;45298;54.918;73.504;2023-01-08T05:21:52;16.20;;;5.75;;
59486;SDS011;45298;54.918;73.504;2023-01-08T05:24:21;18.60;;;7.20;;
59486;SDS011;45298;54.918;73.504;2023-01-08T05:26:50;17.02;;;6.50;;
59486;SDS011;45298;54.918;73.504;2023-01-08T05:29:19;17.65;;;7.07;;
59486;SDS011;45298;54.918;73.504;2023-01-08T05:31:48;18.20;;;6.82;;
59486;SDS011;45298;54.918;73.504;2023-01-08T05:34:17;16.00;;;6.50;;
59486;SDS011;45298;54.918;73.504;2023-01-08T05:36:45;18.08;;;6.60;;
59486;SDS011;45298;54.918;73.504;2023-01-08T05:39:14;17.50;;;6.88;;
59486;SDS011;45298;54.918;73.504;2023-01-08T05:41:43;18.58;;;6.90;;
59486;SDS011;45298;54.918;73.504;2023-01-08T05:44:11;16.15;;;6.25;;
59486;SDS011;45298;54.918;73.504;2023-01-08T05:46:40;13.93;;;6.10;;
59486;SDS011;45298;54.918;73.504;2023-01-08T05:49:09;14.60;;;6.40;;
59486;SDS011;45298;54.918;73.504;2023-01-08T05:51:38;15.13;;;6.32;;
59486;SDS011;45298;54.918;73.504;2023-01-08T05:54:07;19.35;;;7.00;;
59486;SDS011;45298;54.918;73.504;2023-01-08T05:56:36;17.95;;;6.05;;
59486;SDS011;45298;54.918;73.504;2023-01-08T05:59:05;19.23;;;6.40;;
59486;SDS011;45298;54.918;73.504;2023-01-08T06:01:33;18.10;;;6.95;;
59486;SDS011;45298;54.918;73.504;2023-01-08T06:04:03;17.92;;;6.82;;
59486;SDS011;45298;54.918;73.504;2023-01-08T06:06:32;17.88;;;6.95;;
59486;SDS011;45298;54.918;73.504;2023-01-08T06:09:02;19.50;;;6.75;;
59486;SDS011;45298;54.918;73.504;2023-01-08T06:11:30;18.55;;;6.57;;
59486;SDS011;45298;54.918;73.504;2023-01-08T06:13:59;17.15;;;5.97;;
59486;SDS011;45298;54.918;73.504;2023-01-08T06:16:28;16.38;;;6.40;;
59486;SDS011;45298;54.918;73.504;2023-01-08T06:18:57;19.00;;;6.05;;
59486;SDS011;45298;54.918;73.504;2023-01-08T06:21:26;16.88;;;6.38;;
59486;SDS011;45298;54.918;73.504;2023-01-08T06:23:56;19.58;;;6.65;;
59486;SDS011;45298;54.918;73.504;2023-01-08T06:26:25;19.08;;;8.02;;
59486;SDS011;45298;54.918;73.504;2023-01-08T06:28:54;22.52;;;8.35;;
59486;SDS011;45298;54.918;73.504;2023-01-08T06:31:24;20.80;;;7.63;;
59486;SDS011;45298;54.918;73.504;2023-01-08T06:33:53;21.83;;;7.50;;
59486;SDS011;45298;54.918;73.504;2023-01-08T06:36:22;22.10;;;7.90;;
59486;SDS011;45298;54.918;73.504;2023-01-08T06:38:51;22.60;;;8.07;;
59486;SDS011;45298;54.918;73.504;2023-01-08T06:41:21;25.60;;;9.93;;
59486;SDS011;45298;54.918;73.504;2023-01-08T06:43:51;23.15;;;8.80;;
59486;SDS011;45298;54.918;73.504;2023-01-08T06:46:23;20.17;;;6.60;;
59486;SDS011;45298;54.918;73.504;2023-01-08T06:48:52;23.00;;;6.90;;
59486;SDS011;45298;54.918;73.504;2023-01-08T06:51:23;15.02;;;6.25;;
59486;SDS011;45298;54.918;73.504;2023-01-08T06:53:52;19.23;;;5.80;;
59486;SDS011;45298;54.918;73.504;2023-01-08T06:56:21;17.90;;;5.82;;
59486;SDS011;45298;54.918;73.504;2023-01-08T06:58:50;16.83;;;6.00;;
59486;SDS011;45298;54.918;73.504;2023-01-08T07:01:18;13.85;;;5.20;;
59486;SDS011;45298;54.918;73.504;2023-01-08T07:03:49;17.63;;;5.88;;
59486;SDS011;45298;54.918;73.504;2023-01-08T07:06:19;18.88;;;6.32;;
59486;SDS011;45298;54.918;73.504;2023-01-08T07:08:49;18.90;;;6.60;;
59486;SDS011;45298;54.918;73.504;2023-01-08T07:11:18;16.10;;;6.10;;
59486;SDS011;45298;54.918;73.504;2023-01-08T07:13:47;18.35;;;5.93;;
59486;SDS011;45298;54.918;73.504;2023-01-08T07:16:16;17.85;;;6.45;;
59486;SDS011;45298;54.918;73.504;2023-01-08T07:18:45;19.30;;;6.25;;
59486;SDS011;45298;54.918;73.504;2023-01-08T07:21:14;18.05;;;6.13;;
59486;SDS011;45298;54.918;73.504;2023-01-08T07:23:43;19.77;;;6.25;;
59486;SDS011;45298;54.918;73.504;2023-01-08T07:26:14;25.88;;;8.15;;
59486;SDS011;45298;54.918;73.504;2023-01-08T07:28:44;25.83;;;8.93;;
59486;SDS011;45298;54.918;73.504;2023-01-08T07:31:13;23.00;;;9.63;;
59486;SDS011;45298;54.918;73.504;2023-01-08T07:33:42;29.92;;;11.27;;
59486;SDS011;45298;54.918;73.504;2023-01-08T07:36:11;26.90;;;11.20;;
59486;SDS011;45298;54.918;73.504;2023-01-08T07:38:41;29.00;;;10.70;;
59486;SDS011;45298;54.918;73.504;2023-01-08T07:41:10;31.70;;;10.32;;
59486;SDS011;45298;54.918;73.504;2023-01-08T07:43:40;22.77;;;8.73;;
59486;SDS011;45298;54.918;73.504;2023-01-08T07:46:09;31.55;;;12.48;;
59486;SDS011;45298;54.918;73.504;2023-01-08T07:48:38;41.10;;;16.33;;
59486;SDS011;45298;54.918;73.504;2023-01-08T07:51:07;46.20;;;19.52;;
59486;SDS011;45298;54.918;73.504;2023-01-08T07:53:37;32.05;;;14.88;;
59486;SDS011;45298;54.918;73.504;2023-01-08T07:56:07;39.95;;;15.52;;
59486;SDS011;45298;54.918;73.504;2023-01-08T07:58:37;108.97;;;42.35;;
59486;SDS011;45298;54.918;73.504;2023-01-08T08:01:07;67.97;;;26.27;;
59486;SDS011;45298;54.918;73.504;2023-01-08T08:03:38;40.28;;;15.35;;
59486;SDS011;45298;54.918;73.504;2023-01-08T08:06:07;61.20;;;30.80;;
59486;SDS011;45298;54.918;73.504;2023-01-08T08:08:36;135.68;;;55.33;;
59486;SDS011;45298;54.918;73.504;2023-01-08T08:11:08;91.30;;;34.30;;
59486;SDS011;45298;54.918;73.504;2023-01-08T08:13:37;68.20;;;25.08;;
59486;SDS011;45298;54.918;73.504;2023-01-08T08:16:11;40.17;;;16.23;;
59486;SDS011;45298;54.918;73.504;2023-01-08T08:18:43;27.38;;;12.00;;
59486;SDS011;45298;54.918;73.504;2023-01-08T08:21:12;66.43;;;33.53;;
59486;SDS011;45298;54.918;73.504;2023-01-08T08:23:42;39.05;;;19.27;;
59486;SDS011;45298;54.918;73.504;2023-01-08T08:26:11;36.22;;;17.83;;
59486;SDS011;45298;54.918;73.504;2023-01-08T08:28:40;28.23;;;11.15;;
59486;SDS011;45298;54.918;73.504;2023-01-08T08:31:09;38.17;;;15.75;;
59486;SDS011;45298;54.918;73.504;2023-01-08T08:33:38;25.23;;;10.35;;
59486;SDS011;45298;54.918;73.504;2023-01-08T08:36:07;43.80;;;21.95;;
59486;SDS011;45298;54.918;73.504;2023-01-08T08:38:37;19.00;;;8.02;;
59486;SDS011;45298;54.918;73.504;2023-01-08T08:41:07;26.45;;;11.25;;
59486;SDS011;45298;54.918;73.504;2023-01-08T08:43:36;27.63;;;10.50;;
59486;SDS011;45298;54.918;73.504;2023-01-08T08:46:05;24.27;;;10.35;;
59486;SDS011;45298;54.918;73.504;2023-01-08T08:48:34;29.60;;;10.60;;
59486;SDS011;45298;54.918;73.504;2023-01-08T08:51:11;24.98;;;9.10;;
59486;SDS011;45298;54.918;73.504;2023-01-08T08:53:40;24.30;;;9.85;;
59486;SDS011;45298;54.918;73.504;2023-01-08T08:56:09;29.50;;;9.73;;
59486;SDS011;45298;54.918;73.504;2023-01-08T08:58:38;21.58;;;9.40;;
59486;SDS011;45298;54.918;73.504;2023-01-08T09:01:12;22.27;;;9.43;;
59486;SDS011;45298;54.918;73.504;2023-01-08T09:03:41;21.42;;;7.93;;
59486;SDS011;45298;54.918;73.504;2023-01-08T09:06:13;19.98;;;8.52;;
59486;SDS011;45298;54.918;73.504;2023-01-08T09:08:42;22.67;;;10.43;;
59486;SDS011;45298;54.918;73.504;2023-01-08T09:11:11;32.78;;;13.90;;
59486;SDS011;45298;54.918;73.504;2023-01-08T09:13:40;33.42;;;15.13;;
59486;SDS011;45298;54.918;73.504;2023-01-08T09:16:12;39.80;;;16.35;;
59486;SDS011;45298;54.918;73.504;2023-01-08T09:18:44;31.63;;;13.70;;
59486;SDS011;45298;54.918;73.504;2023-01-08T09:21:13;21.02;;;8.25;;
59486;SDS011;45298;54.918;73.504;2023-01-08T09:23:43;21.00;;;8.82;;
59486;SDS011;45298;54.918;73.504;2023-01-08T09:26:11;21.23;;;8.80;;
59486;SDS011;45298;54.918;73.504;2023-01-08T09:28:40;21.63;;;9.23;;
59486;SDS011;45298;54.918;73.504;2023-01-08T09:31:09;23.42;;;10.98;;
59486;SDS011;45298;54.918;73.504;2023-01-08T09:33:38;19.83;;;8.98;;
59486;SDS011;45298;54.918;73.504;2023-01-08T09:36:08;22.20;;;9.32;;
59486;SDS011;45298;54.918;73.504;2023-01-08T09:38:39;29.13;;;11.60;;
59486;SDS011;45298;54.918;73.504;2023-01-08T09:43:49;29.73;;;12.70;;
59486;SDS011;45298;54.918;73.504;2023-01-08T09:46:21;27.92;;;12.30;;
59486;SDS011;45298;54.918;73.504;2023-01-08T09:48:54;30.38;;;12.80;;
59486;SDS011;45298;54.918;73.504;2023-01-08T09:51:32;31.05;;;14.13;;
59486;SDS011;45298;54.918;73.504;2023-01-08T09:54:03;45.13;;;19.02;;
59486;SDS011;45298;54.918;73.504;2023-01-08T09:56:35;76.88;;;29.02;;
59486;SDS011;45298;54.918;73.504;2023-01-08T09:59:05;43.10;;;18.42;;
59486;SDS011;45298;54.918;73.504;2023-01-08T10:01:38;48.70;;;22.10;;
59486;SDS011;45298;54.918;73.504;2023-01-08T10:04:19;54.45;;;25.60;;
59486;SDS011;45298;54.918;73.504;2023-01-08T10:06:55;28.67;;;11.95;;
59486;SDS011;45298;54.918;73.504;2023-01-08T10:09:30;22.77;;;10.32;;
59486;SDS011;45298;54.918;73.504;2023-01-08T10:12:00;31.02;;;14.45;;
59486;SDS011;45298;54.918;73.504;2023-01-08T10:14:34;34.22;;;15.23;;
59486;SDS011;45298;54.918;73.504;2023-01-08T10:19:55;35.53;;;15.43;;
59486;SDS011;45298;54.918;73.504;2023-01-08T10:22:26;28.63;;;12.73;;
59486;SDS011;45298;54.918;73.504;2023-01-08T10:25:08;26.50;;;11.05;;
59486;SDS011;45298;54.918;73.504;2023-01-08T10:27:46;25.60;;;11.48;;
59486;SDS011;45298;54.918;73.504;2023-01-08T10:30:18;26.58;;;10.95;;
59486;SDS011;45298;54.918;73.504;2023-01-08T10:32:53;53.15;;;24.00;;
59486;SDS011;45298;54.918;73.504;2023-01-08T10:35:28;28.05;;;12.23;;
59486;SDS011;45298;54.918;73.504;2023-01-08T10:38:01;33.15;;;13.07;;
59486;SDS011;45298;54.918;73.504;2023-01-08T10:43:14;47.13;;;19.25;;
59486;SDS011;45298;54.918;73.504;2023-01-08T10:46:20;44.55;;;18.52;;
59486;SDS011;45298;54.918;73.504;2023-01-08T10:48:44;50.22;;;19.27;;
59486;SDS011;45298;54.918;73.504;2023-01-08T10:53:53;183.05;;;52.67;;
59486;SDS011;45298;54.918;73.504;2023-01-08T10:56:24;165.30;;;51.55;;
59486;SDS011;45298;54.918;73.504;2023-01-08T10:58:59;151.43;;;45.38;;
59486;SDS011;45298;54.918;73.504;2023-01-08T11:01:28;146.57;;;44.05;;
59486;SDS011;45298;54.918;73.504;2023-01-08T11:04:00;122.35;;;38.00;;
59486;SDS011;45298;54.918;73.504;2023-01-08T11:06:32;118.00;;;36.13;;
59486;SDS011;45298;54.918;73.504;2023-01-08T11:09:22;125.50;;;39.17;;
59486;SDS011;45298;54.918;73.504;2023-01-08T11:11:59;96.68;;;32.80;;
59486;SDS011;45298;54.918;73.504;2023-01-08T11:14:29;87.70;;;31.20;;
59486;SDS011;45298;54.918;73.504;2023-01-08T11:17:09;78.18;;;30.15;;
59486;SDS011;45298;54.918;73.504;2023-01-08T11:19:40;85.45;;;33.20;;
59486;SDS011;45298;54.918;73.504;2023-01-08T11:22:17;102.00;;;38.55;;
59486;SDS011;45298;54.918;73.504;2023-01-08T11:24:48;73.97;;;27.08;;
59486;SDS011;45298;54.918;73.504;2023-01-08T11:30:10;54.60;;;21.05;;
59486;SDS011;45298;54.918;73.504;2023-01-08T11:33:06;46.53;;;19.35;;
59486;SDS011;45298;54.918;73.504;2023-01-08T11:38:06;49.20;;;20.80;;
59486;SDS011;45298;54.918;73.504;2023-01-08T11:40:41;54.10;;;21.58;;
59486;SDS011;45298;54.918;73.504;2023-01-08T11:46:30;58.63;;;21.85;;
59486;SDS011;45298;54.918;73.504;2023-01-08T11:51:47;51.80;;;20.70;;
59486;SDS011;45298;54.918;73.504;2023-01-08T12:03:50;67.25;;;22.90;;
59486;SDS011;45298;54.918;73.504;2023-01-08T12:11:57;55.60;;;19.98;;
59486;SDS011;45298;54.918;73.504;2023-01-08T12:21:21;41.40;;;14.98;;
59486;SDS011;45298;54.918;73.504;2023-01-08T12:32:09;46.42;;;17.60;;
59486;SDS011;45298;54.918;73.504;2023-01-08T12:37:20;54.22;;;20.00;;
59486;SDS011;45298;54.918;73.504;2023-01-08T12:39:55;47.67;;;19.07;;
59486;SDS011;45298;54.918;73.504;2023-01-08T12:42:36;52.97;;;18.25;;
59486;SDS011;45298;54.918;73.504;2023-01-08T12:45:25;60.08;;;20.80;;
59486;SDS011;45298;54.918;73.504;2023-01-08T12:48:15;53.83;;;18.52;;
59486;SDS011;45298;54.918;73.504;2023-01-08T12:53:38;51.70;;;18.10;;
59486;SDS011;45298;54.918;73.504;2023-01-08T12:58:45;51.67;;;18.23;;
59486;SDS011;45298;54.918;73.504;2023-01-08T13:04:01;68.95;;;22.48;;
59486;SDS011;45298;54.918;73.504;2023-01-08T13:06:32;58.45;;;19.00;;
59486;SDS011;45298;54.918;73.504;2023-01-08T13:09:06;63.97;;;20.83;;
59486;SDS011;45298;54.918;73.504;2023-01-08T13:11:50;69.15;;;21.98;;
59486;SDS011;45298;54.918;73.504;2023-01-08T13:14:25;67.30;;;20.80;;
59486;SDS011;45298;54.918;73.504;2023-01-08T13:17:05;49.25;;;17.00;;
59486;SDS011;45298;54.918;73.504;2023-01-08T13:20:02;54.75;;;18.30;;
59486;SDS011;45298;54.918;73.504;2023-01-08T13:22:54;50.13;;;16.65;;
59486;SDS011;45298;54.918;73.504;2023-01-08T13:25:53;40.95;;;14.05;;
59486;SDS011;45298;54.918;73.504;2023-01-08T13:34:58;41.92;;;13.38;;
59486;SDS011;45298;54.918;73.504;2023-01-08T13:37:24;38.67;;;11.55;;
59486;SDS011;45298;54.918;73.504;2023-01-08T13:40:34;45.33;;;13.15;;
59486;SDS011;45298;54.918;73.504;2023-01-08T13:43:16;170.70;;;35.38;;
59486;SDS011;45298;54.918;73.504;2023-01-08T13:46:15;105.93;;;25.35;;
59486;SDS011;45298;54.918;73.504;2023-01-08T13:49:05;59.60;;;15.40;;
59486;SDS011;45298;54.918;73.504;2023-01-08T13:55:51;86.88;;;23.88;;
59486;SDS011;45298;54.918;73.504;2023-01-08T13:58:44;38.70;;;13.27;;
59486;SDS011;45298;54.918;73.504;2023-01-08T14:01:33;22.38;;;8.80;;
59486;SDS011;45298;54.918;73.504;2023-01-08T14:04:24;20.42;;;7.15;;
59486;SDS011;45298;54.918;73.504;2023-01-08T14:07:15;38.70;;;9.93;;
59486;SDS011;45298;54.918;73.504;2023-01-08T14:10:07;32.40;;;9.68;;
59486;SDS011;45298;54.918;73.504;2023-01-08T14:13:04;31.33;;;10.25;;
59486;SDS011;45298;54.918;73.504;2023-01-08T14:16:14;47.58;;;14.77;;
59486;SDS011;45298;54.918;73.504;2023-01-08T14:18:59;19.15;;;5.97;;
59486;SDS011;45298;54.918;73.504;2023-01-08T14:21:49;25.00;;;8.85;;
59486;SDS011;45298;54.918;73.504;2023-01-08T14:24:31;22.27;;;7.60;;
59486;SDS011;45298;54.918;73.504;2023-01-08T14:27:18;20.80;;;6.25;;
59486;SDS011;45298;54.918;73.504;2023-01-08T14:30:15;22.25;;;8.13;;
59486;SDS011;45298;54.918;73.504;2023-01-08T14:33:09;24.13;;;8.40;;
59486;SDS011;45298;54.918;73.504;2023-01-08T14:36:05;21.13;;;7.25;;
59486;SDS011;45298;54.918;73.504;2023-01-08T14:38:45;21.25;;;6.20;;
59486;SDS011;45298;54.918;73.504;2023-01-08T14:41:42;21.73;;;6.18;;
59486;SDS011;45298;54.918;73.504;2023-01-08T14:44:37;36.58;;;13.85;;
59486;SDS011;45298;54.918;73.504;2023-01-08T14:47:27;21.88;;;8.25;;
59486;SDS011;45298;54.918;73.504;2023-01-08T14:50:28;26.05;;;9.93;;
59486;SDS011;45298;54.918;73.504;2023-01-08T14:53:26;35.55;;;12.93;;
59486;SDS011;45298;54.918;73.504;2023-01-08T14:56:26;28.50;;;9.90;;
59486;SDS011;45298;54.918;73.504;2023-01-08T14:59:16;31.83;;;9.32;;
59486;SDS011;45298;54.918;73.504;2023-01-08T15:02:30;17.00;;;5.40;;
59486;SDS011;45298;54.918;73.504;2023-01-08T15:07:55;19.80;;;4.75;;
59486;SDS011;45298;54.918;73.504;2023-01-08T15:11:05;14.35;;;5.25;;
59486;SDS011;45298;54.918;73.504;2023-01-08T15:14:19;17.85;;;7.70;;
59486;SDS011;45298;54.918;73.504;2023-01-08T15:17:10;24.67;;;7.80;;
59486;SDS011;45298;54.918;73.504;2023-01-08T15:20:02;9.65;;;3.63;;
59486;SDS011;45298;54.918;73.504;2023-01-08T15:22:40;19.85;;;5.45;;
59486;SDS011;45298;54.918;73.504;2023-01-08T15:25:33;17.65;;;5.15;;
59486;SDS011;45298;54.918;73.504;2023-01-08T15:28:18;17.58;;;5.82;;
59486;SDS011;45298;54.918;73.504;2023-01-08T15:30:57;17.48;;;5.53;;
59486;SDS011;45298;54.918;73.504;2023-01-08T15:33:52;13.25;;;4.88;;
59486;SDS011;45298;54.918;73.504;2023-01-08T15:36:33;14.68;;;4.72;;
59486;SDS011;45298;54.918;73.504;2023-01-08T15:39:13;12.85;;;4.07;;
59486;SDS011;45298;54.918;73.504;2023-01-08T15:41:52;17.83;;;5.35;;
59486;SDS011;45298;54.918;73.504;2023-01-08T15:44:49;17.67;;;4.43;;
59486;SDS011;45298;54.918;73.504;2023-01-08T15:47:28;21.33;;;5.78;;
59486;SDS011;45298;54.918;73.504;2023-01-08T15:50:06;16.30;;;4.53;;
59486;SDS011;45298;54.918;73.504;2023-01-08T15:52:43;15.35;;;4.07;;
59486;SDS011;45298;54.918;73.504;2023-01-08T15:55:26;13.40;;;4.43;;
59486;SDS011;45298;54.918;73.504;2023-01-08T15:58:17;13.90;;;3.65;;
59486;SDS011;45298;54.918;73.504;2023-01-08T16:00:59;13.70;;;3.60;;
59486;SDS011;45298;54.918;73.504;2023-01-08T16:03:43;13.93;;;5.07;;
59486;SDS011;45298;54.918;73.504;2023-01-08T16:06:17;12.05;;;5.07;;
59486;SDS011;45298;54.918;73.504;2023-01-08T16:08:54;35.53;;;11.48;;
59486;SDS011;45298;54.918;73.504;2023-01-08T16:11:40;24.15;;;7.35;;
59486;SDS011;45298;54.918;73.504;2023-01-08T16:14:14;50.13;;;12.90;;
59486;SDS011;45298;54.918;73.504;2023-01-08T16:16:51;24.70;;;7.03;;
59486;SDS011;45298;54.918;73.504;2023-01-08T16:19:29;25.27;;;8.95;;
59486;SDS011;45298;54.918;73.504;2023-01-08T16:22:11;12.32;;;4.85;;
59486;SDS011;45298;54.918;73.504;2023-01-08T16:24:47;19.45;;;6.15;;